sensor_id;sensor_type;location;lat;lon;timestamp;pressure;altitude;pressure_sealevel;temperature;humidity
33486;BME280;19824;52.098;5.004;2023-02-28T06:06:39;103261.59;;;4.90;70.00
33486;BME280;19824;52.098;5.004;2023-02-28T06:13:53;103254.94;;;4.79;70.55
33486;BME280;19824;52.098;5.004;2023-02-28T06:24:41;103257.69;;;4.47;72.51
33486;BME280;19824;52.098;5.004;2023-02-28T06:28:10;103254.59;;;4.33;74.36
33486;BME280;19824;52.098;5.004;2023-02-28T06:32:56;103254.75;;;4.27;74.37
33486;BME280;19824;52.098;5.004;2023-02-28T07:00:32;103288.75;;;4.07;75.64
33486;BME280;19824;52.098;5.004;2023-02-28T07:03:13;103287.09;;;4.03;75.65
33486;BME280;19824;52.098;5.004;2023-02-28T07:05:45;103291.47;;;4.03;76.02
33486;BME280;19824;52.098;5.004;2023-02-28T07:08:21;103291.38;;;4.07;76.41
33486;BME280;19824;52.098;5.004;2023-02-28T07:10:53;103283.56;;;4.04;76.82
33486;BME280;19824;52.098;5.004;2023-02-28T07:13:30;103292.28;;;4.06;77.21
33486;BME280;19824;52.098;5.004;2023-02-28T07:16:03;103282.47;;;4.11;77.91
33486;BME280;19824;52.098;5.004;2023-02-28T07:18:49;103285.78;;;4.18;77.40
33486;BME280;19824;52.098;5.004;2023-02-28T07:21:19;103283.88;;;4.23;77.76
33486;BME280;19824;52.098;5.004;2023-02-28T07:23:58;103288.19;;;4.25;77.53
33486;BME280;19824;52.098;5.004;2023-02-28T07:26:28;103286.44;;;4.26;78.15
33486;BME280;19824;52.098;5.004;2023-02-28T07:29:07;103277.56;;;4.28;77.96
33486;BME280;19824;52.098;5.004;2023-02-28T07:31:38;103288.91;;;4.32;78.47
33486;BME280;19824;52.098;5.004;2023-02-28T07:34:17;103278.47;;;4.29;79.08
33486;BME280;19824;52.098;5.004;2023-02-28T07:36:47;103276.50;;;4.35;78.96
33486;BME280;19824;52.098;5.004;2023-02-28T07:39:26;103273.66;;;4.41;79.19
33486;BME280;19824;52.098;5.004;2023-02-28T07:41:56;103280.59;;;4.45;79.74
33486;BME280;19824;52.098;5.004;2023-02-28T07:44:33;103276.97;;;4.48;79.51
33486;BME280;19824;52.098;5.004;2023-02-28T07:47:13;103271.59;;;4.52;79.92
33486;BME280;19824;52.098;5.004;2023-02-28T07:49:46;103285.50;;;4.57;79.79
33486;BME280;19824;52.098;5.004;2023-02-28T07:52:24;103276.69;;;4.58;79.69
33486;BME280;19824;52.098;5.004;2023-02-28T07:55:01;103277.47;;;4.62;79.98
33486;BME280;19824;52.098;5.004;2023-02-28T07:57:31;103282.63;;;4.65;80.37
33486;BME280;19824;52.098;5.004;2023-02-28T08:00:13;103282.53;;;4.68;80.15
33486;BME280;19824;52.098;5.004;2023-02-28T08:02:44;103287.66;;;4.72;80.23
33486;BME280;19824;52.098;5.004;2023-02-28T08:05:23;103282.50;;;4.69;80.97
33486;BME280;19824;52.098;5.004;2023-02-28T08:07:53;103285.03;;;4.72;80.60
33486;BME280;19824;52.098;5.004;2023-02-28T08:10:29;103282.31;;;4.75;81.17
33486;BME280;19824;52.098;5.004;2023-02-28T08:13:02;103290.97;;;4.80;81.10
33486;BME280;19824;52.098;5.004;2023-02-28T08:15:41;103288.31;;;4.80;80.70
33486;BME280;19824;52.098;5.004;2023-02-28T08:18:12;103297.22;;;4.76;81.44
33486;BME280;19824;52.098;5.004;2023-02-28T08:20:51;103288.50;;;4.74;81.32
33486;BME280;19824;52.098;5.004;2023-02-28T08:23:21;103286.66;;;4.78;81.37
33486;BME280;19824;52.098;5.004;2023-02-28T08:26:02;103295.31;;;4.81;81.25
33486;BME280;19824;52.098;5.004;2023-02-28T08:28:38;103290.91;;;4.81;81.19
33486;BME280;19824;52.098;5.004;2023-02-28T08:31:10;103303.91;;;4.87;81.83
33486;BME280;19824;52.098;5.004;2023-02-28T08:33:47;103296.72;;;4.92;81.88
33486;BME280;19824;52.098;5.004;2023-02-28T08:36:24;103300.97;;;4.98;82.42
33486;BME280;19824;52.098;5.004;2023-02-28T08:39:02;103296.28;;;5.06;82.50
33486;BME280;19824;52.098;5.004;2023-02-28T08:41:41;103303.13;;;5.13;82.56
33486;BME280;19824;52.098;5.004;2023-02-28T08:44:15;103293.38;;;5.15;82.63
33486;BME280;19824;52.098;5.004;2023-02-28T08:46:51;103296.59;;;5.24;82.99
33486;BME280;19824;52.098;5.004;2023-02-28T08:49:21;103291.84;;;5.34;82.73
33486;BME280;19824;52.098;5.004;2023-02-28T08:52:03;103291.56;;;5.43;82.55
33486;BME280;19824;52.098;5.004;2023-02-28T08:54:33;103296.75;;;5.46;82.77
33486;BME280;19824;52.098;5.004;2023-02-28T08:57:15;103302.88;;;5.46;83.18
33486;BME280;19824;52.098;5.004;2023-02-28T08:59:45;103302.78;;;5.49;83.18
33486;BME280;19824;52.098;5.004;2023-02-28T09:05:11;103300.19;;;5.48;82.67
33486;BME280;19824;52.098;5.004;2023-02-28T09:23:12;103302.84;;;5.48;79.99
33486;BME280;19824;52.098;5.004;2023-02-28T09:29:32;103306.91;;;5.56;79.53
33486;BME280;19824;52.098;5.004;2023-02-28T09:32:09;103299.13;;;5.53;78.68
